sensor_id;sensor_type;location;lat;lon;timestamp;P1;durP1;ratioP1;P2;durP2;ratioP2
67997;SDS011;54773;53.388;-1.504;2023-07-09T00:01:59;5.85;;;3.65;;
67997;SDS011;54773;53.388;-1.504;2023-07-09T00:04:43;8.77;;;4.00;;
67997;SDS011;54773;53.388;-1.504;2023-07-09T00:07:28;6.82;;;4.30;;
67997;SDS011;54773;53.388;-1.504;2023-07-09T00:10:15;8.68;;;5.03;;
67997;SDS011;54773;53.388;-1.504;2023-07-09T00:13:00;10.82;;;5.03;;
67997;SDS011;54773;53.388;-1.504;2023-07-09T00:15:44;9.30;;;5.28;;
67997;SDS011;54773;53.388;-1.504;2023-07-09T00:18:28;9.38;;;5.40;;
67997;SDS011;54773;53.388;-1.504;2023-07-09T00:21:12;9.77;;;5.63;;
67997;SDS011;54773;53.388;-1.504;2023-07-09T00:23:56;11.68;;;6.28;;
67997;SDS011;54773;53.388;-1.504;2023-07-09T00:26:40;10.10;;;5.97;;
67997;SDS011;54773;53.388;-1.504;2023-07-09T00:29:24;9.25;;;5.47;;
67997;SDS011;54773;53.388;-1.504;2023-07-09T00:32:12;10.85;;;5.70;;
67997;SDS011;54773;53.388;-1.504;2023-07-09T00:34:59;11.07;;;5.93;;
67997;SDS011;54773;53.388;-1.504;2023-07-09T00:37:44;9.85;;;6.18;;
67997;SDS011;54773;53.388;-1.504;2023-07-09T00:40:29;10.35;;;6.05;;
67997;SDS011;54773;53.388;-1.504;2023-07-09T00:43:13;9.90;;;5.97;;
67997;SDS011;54773;53.388;-1.504;2023-07-09T00:49:14;8.70;;;5.97;;
67997;SDS011;54773;53.388;-1.504;2023-07-09T00:52:03;7.97;;;5.30;;
67997;SDS011;54773;53.388;-1.504;2023-07-09T00:54:53;8.75;;;5.53;;
67997;SDS011;54773;53.388;-1.504;2023-07-09T00:57:38;8.38;;;5.70;;
67997;SDS011;54773;53.388;-1.504;2023-07-09T01:00:28;7.28;;;5.35;;
67997;SDS011;54773;53.388;-1.504;2023-07-09T01:03:18;11.13;;;5.30;;
67997;SDS011;54773;53.388;-1.504;2023-07-09T01:06:05;10.23;;;5.03;;
67997;SDS011;54773;53.388;-1.504;2023-07-09T01:08:49;10.38;;;5.47;;
67997;SDS011;54773;53.388;-1.504;2023-07-09T01:11:37;9.27;;;5.93;;
67997;SDS011;54773;53.388;-1.504;2023-07-09T01:14:22;9.25;;;5.72;;
67997;SDS011;54773;53.388;-1.504;2023-07-09T01:17:09;10.35;;;5.78;;
67997;SDS011;54773;53.388;-1.504;2023-07-09T01:19:55;8.02;;;5.68;;
67997;SDS011;54773;53.388;-1.504;2023-07-09T01:22:40;10.80;;;5.22;;
67997;SDS011;54773;53.388;-1.504;2023-07-09T01:25:24;8.60;;;5.00;;
67997;SDS011;54773;53.388;-1.504;2023-07-09T01:28:08;9.48;;;5.10;;
67997;SDS011;54773;53.388;-1.504;2023-07-09T01:30:52;8.73;;;4.70;;
67997;SDS011;54773;53.388;-1.504;2023-07-09T01:33:37;8.57;;;5.75;;
67997;SDS011;54773;53.388;-1.504;2023-07-09T01:36:23;7.05;;;5.03;;
67997;SDS011;54773;53.388;-1.504;2023-07-09T01:39:07;9.63;;;5.32;;
67997;SDS011;54773;53.388;-1.504;2023-07-09T01:41:52;7.57;;;5.13;;
67997;SDS011;54773;53.388;-1.504;2023-07-09T01:44:36;8.95;;;5.80;;
67997;SDS011;54773;53.388;-1.504;2023-07-09T01:47:22;9.35;;;5.97;;
67997;SDS011;54773;53.388;-1.504;2023-07-09T01:50:07;8.02;;;5.47;;
67997;SDS011;54773;53.388;-1.504;2023-07-09T01:52:53;8.57;;;5.63;;
67997;SDS011;54773;53.388;-1.504;2023-07-09T01:55:38;7.93;;;5.03;;
67997;SDS011;54773;53.388;-1.504;2023-07-09T01:58:22;6.82;;;4.80;;
67997;SDS011;54773;53.388;-1.504;2023-07-09T02:01:08;6.55;;;4.60;;
67997;SDS011;54773;53.388;-1.504;2023-07-09T02:03:53;11.13;;;5.47;;
67997;SDS011;54773;53.388;-1.504;2023-07-09T02:06:36;10.20;;;5.20;;
67997;SDS011;54773;53.388;-1.504;2023-07-09T02:09:20;8.70;;;5.20;;
67997;SDS011;54773;53.388;-1.504;2023-07-09T02:12:04;8.17;;;4.93;;
67997;SDS011;54773;53.388;-1.504;2023-07-09T02:14:49;10.45;;;5.20;;
67997;SDS011;54773;53.388;-1.504;2023-07-09T02:17:33;9.25;;;5.20;;
67997;SDS011;54773;53.388;-1.504;2023-07-09T02:20:17;9.98;;;5.03;;
67997;SDS011;54773;53.388;-1.504;2023-07-09T02:23:02;9.60;;;4.80;;
67997;SDS011;54773;53.388;-1.504;2023-07-09T02:25:47;9.35;;;5.30;;
67997;SDS011;54773;53.388;-1.504;2023-07-09T02:28:31;9.15;;;5.28;;
67997;SDS011;54773;53.388;-1.504;2023-07-09T02:31:15;8.50;;;5.13;;
67997;SDS011;54773;53.388;-1.504;2023-07-09T02:33:59;8.70;;;5.70;;
67997;SDS011;54773;53.388;-1.504;2023-07-09T02:36:44;8.88;;;5.53;;
67997;SDS011;54773;53.388;-1.504;2023-07-09T02:39:29;10.88;;;6.03;;
67997;SDS011;54773;53.388;-1.504;2023-07-09T02:42:13;9.25;;;5.65;;
67997;SDS011;54773;53.388;-1.504;2023-07-09T02:44:59;10.32;;;6.28;;
67997;SDS011;54773;53.388;-1.504;2023-07-09T02:47:43;11.23;;;5.65;;
67997;SDS011;54773;53.388;-1.504;2023-07-09T02:50:27;10.68;;;5.72;;
67997;SDS011;54773;53.388;-1.504;2023-07-09T02:53:11;10.38;;;5.57;;
67997;SDS011;54773;53.388;-1.504;2023-07-09T02:55:55;11.93;;;5.82;;
67997;SDS011;54773;53.388;-1.504;2023-07-09T02:58:39;9.40;;;6.00;;
67997;SDS011;54773;53.388;-1.504;2023-07-09T03:01:23;8.90;;;5.95;;
67997;SDS011;54773;53.388;-1.504;2023-07-09T03:04:10;9.60;;;5.47;;
67997;SDS011;54773;53.388;-1.504;2023-07-09T03:06:54;11.27;;;5.93;;
67997;SDS011;54773;53.388;-1.504;2023-07-09T03:09:38;11.23;;;6.55;;
67997;SDS011;54773;53.388;-1.504;2023-07-09T03:12:22;13.85;;;7.20;;
67997;SDS011;54773;53.388;-1.504;2023-07-09T03:15:06;12.70;;;6.80;;
67997;SDS011;54773;53.388;-1.504;2023-07-09T03:17:50;11.40;;;7.43;;
67997;SDS011;54773;53.388;-1.504;2023-07-09T03:20:34;15.40;;;7.67;;
67997;SDS011;54773;53.388;-1.504;2023-07-09T03:23:18;13.40;;;7.53;;
67997;SDS011;54773;53.388;-1.504;2023-07-09T03:26:02;13.00;;;7.60;;
67997;SDS011;54773;53.388;-1.504;2023-07-09T03:28:47;13.13;;;7.97;;
67997;SDS011;54773;53.388;-1.504;2023-07-09T03:31:31;13.82;;;8.35;;
67997;SDS011;54773;53.388;-1.504;2023-07-09T03:34:18;17.92;;;9.55;;
67997;SDS011;54773;53.388;-1.504;2023-07-09T03:37:02;19.77;;;9.70;;
67997;SDS011;54773;53.388;-1.504;2023-07-09T03:39:47;17.00;;;9.45;;
67997;SDS011;54773;53.388;-1.504;2023-07-09T03:42:31;17.85;;;9.63;;
67997;SDS011;54773;53.388;-1.504;2023-07-09T03:45:15;16.73;;;9.45;;
67997;SDS011;54773;53.388;-1.504;2023-07-09T03:47:59;17.38;;;8.45;;
67997;SDS011;54773;53.388;-1.504;2023-07-09T03:50:44;18.75;;;9.43;;
67997;SDS011;54773;53.388;-1.504;2023-07-09T03:53:29;18.48;;;9.25;;
67997;SDS011;54773;53.388;-1.504;2023-07-09T03:56:13;19.40;;;8.90;;
67997;SDS011;54773;53.388;-1.504;2023-07-09T03:58:57;18.57;;;8.93;;
67997;SDS011;54773;53.388;-1.504;2023-07-09T04:01:41;19.60;;;9.70;;
67997;SDS011;54773;53.388;-1.504;2023-07-09T04:04:29;15.95;;;9.05;;
67997;SDS011;54773;53.388;-1.504;2023-07-09T04:07:14;18.13;;;9.50;;
67997;SDS011;54773;53.388;-1.504;2023-07-09T04:09:58;22.50;;;9.98;;
67997;SDS011;54773;53.388;-1.504;2023-07-09T04:12:42;18.48;;;10.45;;
67997;SDS011;54773;53.388;-1.504;2023-07-09T04:15:26;18.73;;;9.73;;
67997;SDS011;54773;53.388;-1.504;2023-07-09T04:18:10;22.02;;;10.57;;
67997;SDS011;54773;53.388;-1.504;2023-07-09T04:20:54;21.00;;;10.40;;
67997;SDS011;54773;53.388;-1.504;2023-07-09T04:23:38;20.80;;;10.88;;
67997;SDS011;54773;53.388;-1.504;2023-07-09T04:26:22;21.43;;;10.73;;
67997;SDS011;54773;53.388;-1.504;2023-07-09T04:29:07;21.60;;;11.10;;
67997;SDS011;54773;53.388;-1.504;2023-07-09T04:31:51;24.40;;;10.65;;
67997;SDS011;54773;53.388;-1.504;2023-07-09T04:34:35;17.25;;;9.00;;
67997;SDS011;54773;53.388;-1.504;2023-07-09T04:37:19;18.13;;;9.10;;
67997;SDS011;54773;53.388;-1.504;2023-07-09T04:40:03;21.55;;;8.77;;
67997;SDS011;54773;53.388;-1.504;2023-07-09T04:42:50;17.48;;;8.77;;
67997;SDS011;54773;53.388;-1.504;2023-07-09T04:45:34;19.63;;;8.43;;
67997;SDS011;54773;53.388;-1.504;2023-07-09T04:48:18;16.20;;;8.30;;
67997;SDS011;54773;53.388;-1.504;2023-07-09T04:51:02;15.75;;;7.47;;
67997;SDS011;54773;53.388;-1.504;2023-07-09T04:53:46;16.25;;;7.22;;
67997;SDS011;54773;53.388;-1.504;2023-07-09T04:56:30;19.77;;;8.38;;
67997;SDS011;54773;53.388;-1.504;2023-07-09T04:59:14;13.13;;;6.60;;
67997;SDS011;54773;53.388;-1.504;2023-07-09T05:01:58;16.58;;;6.70;;
67997;SDS011;54773;53.388;-1.504;2023-07-09T05:04:42;17.50;;;8.07;;
67997;SDS011;54773;53.388;-1.504;2023-07-09T05:07:26;17.95;;;8.70;;
67997;SDS011;54773;53.388;-1.504;2023-07-09T05:10:11;21.23;;;9.65;;
67997;SDS011;54773;53.388;-1.504;2023-07-09T05:12:55;19.35;;;9.43;;
67997;SDS011;54773;53.388;-1.504;2023-07-09T05:15:39;18.50;;;8.87;;
67997;SDS011;54773;53.388;-1.504;2023-07-09T05:18:25;18.92;;;8.95;;
67997;SDS011;54773;53.388;-1.504;2023-07-09T05:21:09;22.10;;;9.10;;
67997;SDS011;54773;53.388;-1.504;2023-07-09T05:23:53;15.02;;;8.35;;
67997;SDS011;54773;53.388;-1.504;2023-07-09T05:26:37;17.02;;;7.75;;
67997;SDS011;54773;53.388;-1.504;2023-07-09T05:29:21;14.02;;;6.88;;
67997;SDS011;54773;53.388;-1.504;2023-07-09T05:32:05;12.33;;;6.27;;
67997;SDS011;54773;53.388;-1.504;2023-07-09T05:34:49;13.43;;;6.60;;
67997;SDS011;54773;53.388;-1.504;2023-07-09T05:37:33;13.88;;;6.50;;
67997;SDS011;54773;53.388;-1.504;2023-07-09T05:40:17;14.52;;;5.85;;
67997;SDS011;54773;53.388;-1.504;2023-07-09T05:43:01;18.33;;;6.40;;
67997;SDS011;54773;53.388;-1.504;2023-07-09T05:45:45;13.75;;;6.72;;
67997;SDS011;54773;53.388;-1.504;2023-07-09T05:48:29;11.85;;;5.38;;
67997;SDS011;54773;53.388;-1.504;2023-07-09T05:51:13;16.77;;;6.33;;
67997;SDS011;54773;53.388;-1.504;2023-07-09T05:53:57;15.77;;;6.25;;
67997;SDS011;54773;53.388;-1.504;2023-07-09T05:56:41;13.85;;;6.03;;
67997;SDS011;54773;53.388;-1.504;2023-07-09T05:59:24;13.93;;;6.32;;
67997;SDS011;54773;53.388;-1.504;2023-07-09T06:02:12;13.10;;;5.72;;
67997;SDS011;54773;53.388;-1.504;2023-07-09T06:04:58;14.95;;;5.22;;
67997;SDS011;54773;53.388;-1.504;2023-07-09T06:07:41;14.13;;;5.45;;
67997;SDS011;54773;53.388;-1.504;2023-07-09T06:10:25;18.95;;;5.90;;
67997;SDS011;54773;53.388;-1.504;2023-07-09T06:13:09;13.40;;;5.15;;
67997;SDS011;54773;53.388;-1.504;2023-07-09T06:15:54;18.38;;;5.65;;
67997;SDS011;54773;53.388;-1.504;2023-07-09T06:18:38;14.27;;;5.43;;
67997;SDS011;54773;53.388;-1.504;2023-07-09T06:21:22;12.55;;;5.35;;
67997;SDS011;54773;53.388;-1.504;2023-07-09T06:24:06;12.23;;;5.65;;
67997;SDS011;54773;53.388;-1.504;2023-07-09T06:26:52;12.93;;;6.05;;
67997;SDS011;54773;53.388;-1.504;2023-07-09T06:29:35;13.00;;;5.40;;
67997;SDS011;54773;53.388;-1.504;2023-07-09T06:32:19;15.98;;;5.85;;
67997;SDS011;54773;53.388;-1.504;2023-07-09T06:35:03;14.38;;;6.07;;
67997;SDS011;54773;53.388;-1.504;2023-07-09T06:37:48;10.82;;;5.20;;
67997;SDS011;54773;53.388;-1.504;2023-07-09T06:40:32;12.30;;;5.38;;
67997;SDS011;54773;53.388;-1.504;2023-07-09T06:43:19;10.23;;;4.88;;
67997;SDS011;54773;53.388;-1.504;2023-07-09T06:46:04;13.60;;;5.35;;
67997;SDS011;54773;53.388;-1.504;2023-07-09T06:48:48;15.18;;;6.10;;
67997;SDS011;54773;53.388;-1.504;2023-07-09T06:51:33;13.15;;;5.93;;
67997;SDS011;54773;53.388;-1.504;2023-07-09T06:54:17;12.55;;;5.75;;
67997;SDS011;54773;53.388;-1.504;2023-07-09T06:57:01;18.10;;;6.22;;
67997;SDS011;54773;53.388;-1.504;2023-07-09T06:59:46;14.60;;;6.55;;
67997;SDS011;54773;53.388;-1.504;2023-07-09T07:02:30;13.82;;;6.38;;
67997;SDS011;54773;53.388;-1.504;2023-07-09T07:05:14;19.38;;;6.95;;
67997;SDS011;54773;53.388;-1.504;2023-07-09T07:07:59;21.25;;;7.18;;
67997;SDS011;54773;53.388;-1.504;2023-07-09T07:10:44;12.60;;;5.35;;
67997;SDS011;54773;53.388;-1.504;2023-07-09T07:13:37;17.17;;;6.80;;
67997;SDS011;54773;53.388;-1.504;2023-07-09T07:16:23;15.85;;;6.95;;
67997;SDS011;54773;53.388;-1.504;2023-07-09T07:19:07;14.65;;;5.40;;
67997;SDS011;54773;53.388;-1.504;2023-07-09T07:21:51;15.48;;;5.78;;
67997;SDS011;54773;53.388;-1.504;2023-07-09T07:24:35;14.15;;;5.82;;
67997;SDS011;54773;53.388;-1.504;2023-07-09T07:27:19;12.80;;;5.65;;
67997;SDS011;54773;53.388;-1.504;2023-07-09T07:30:03;15.50;;;5.80;;
67997;SDS011;54773;53.388;-1.504;2023-07-09T07:32:48;17.63;;;8.10;;
67997;SDS011;54773;53.388;-1.504;2023-07-09T07:35:32;23.17;;;9.45;;
67997;SDS011;54773;53.388;-1.504;2023-07-09T07:38:16;24.63;;;11.93;;
67997;SDS011;54773;53.388;-1.504;2023-07-09T07:41:01;24.30;;;10.75;;
67997;SDS011;54773;53.388;-1.504;2023-07-09T07:43:45;25.67;;;10.48;;
67997;SDS011;54773;53.388;-1.504;2023-07-09T07:46:30;19.73;;;9.82;;
67997;SDS011;54773;53.388;-1.504;2023-07-09T07:49:16;21.02;;;10.32;;
67997;SDS011;54773;53.388;-1.504;2023-07-09T07:52:00;24.40;;;10.02;;
67997;SDS011;54773;53.388;-1.504;2023-07-09T07:54:47;22.75;;;9.45;;
67997;SDS011;54773;53.388;-1.504;2023-07-09T07:57:31;22.13;;;8.25;;
67997;SDS011;54773;53.388;-1.504;2023-07-09T08:00:15;19.83;;;7.90;;
67997;SDS011;54773;53.388;-1.504;2023-07-09T08:03:00;12.60;;;5.50;;
67997;SDS011;54773;53.388;-1.504;2023-07-09T08:05:47;10.93;;;4.68;;
67997;SDS011;54773;53.388;-1.504;2023-07-09T08:08:32;10.98;;;4.25;;
67997;SDS011;54773;53.388;-1.504;2023-07-09T08:11:16;11.80;;;4.10;;
67997;SDS011;54773;53.388;-1.504;2023-07-09T08:14:00;9.95;;;3.53;;
67997;SDS011;54773;53.388;-1.504;2023-07-09T08:16:44;12.35;;;3.95;;
67997;SDS011;54773;53.388;-1.504;2023-07-09T08:19:28;8.70;;;3.70;;
67997;SDS011;54773;53.388;-1.504;2023-07-09T08:24:57;13.48;;;4.38;;
67997;SDS011;54773;53.388;-1.504;2023-07-09T08:27:41;12.30;;;4.78;;
67997;SDS011;54773;53.388;-1.504;2023-07-09T08:30:25;8.03;;;3.97;;
67997;SDS011;54773;53.388;-1.504;2023-07-09T08:33:12;13.90;;;4.82;;
67997;SDS011;54773;53.388;-1.504;2023-07-09T08:35:57;11.10;;;5.05;;
67997;SDS011;54773;53.388;-1.504;2023-07-09T08:38:40;11.57;;;4.90;;
67997;SDS011;54773;53.388;-1.504;2023-07-09T08:47:41;13.60;;;5.38;;
67997;SDS011;54773;53.388;-1.504;2023-07-09T08:50:41;10.15;;;4.80;;
67997;SDS011;54773;53.388;-1.504;2023-07-09T08:56:20;14.57;;;5.47;;
67997;SDS011;54773;53.388;-1.504;2023-07-09T08:59:05;13.40;;;5.25;;
67997;SDS011;54773;53.388;-1.504;2023-07-09T09:01:52;11.45;;;5.28;;
67997;SDS011;54773;53.388;-1.504;2023-07-09T09:04:41;13.02;;;5.15;;
67997;SDS011;54773;53.388;-1.504;2023-07-09T09:07:31;12.90;;;5.35;;
67997;SDS011;54773;53.388;-1.504;2023-07-09T09:10:28;12.35;;;5.35;;
67997;SDS011;54773;53.388;-1.504;2023-07-09T09:13:15;10.23;;;5.47;;
67997;SDS011;54773;53.388;-1.504;2023-07-09T09:16:01;12.57;;;5.40;;
67997;SDS011;54773;53.388;-1.504;2023-07-09T09:18:48;10.68;;;5.05;;
67997;SDS011;54773;53.388;-1.504;2023-07-09T09:21:33;10.52;;;4.57;;
67997;SDS011;54773;53.388;-1.504;2023-07-09T09:24:23;9.80;;;4.38;;
67997;SDS011;54773;53.388;-1.504;2023-07-09T09:27:11;11.30;;;4.22;;
67997;SDS011;54773;53.388;-1.504;2023-07-09T09:29:55;11.35;;;4.60;;
67997;SDS011;54773;53.388;-1.504;2023-07-09T09:32:43;12.50;;;4.03;;
67997;SDS011;54773;53.388;-1.504;2023-07-09T09:35:31;10.15;;;3.90;;
67997;SDS011;54773;53.388;-1.504;2023-07-09T09:38:19;11.43;;;4.38;;
67997;SDS011;54773;53.388;-1.504;2023-07-09T09:41:08;8.13;;;4.13;;
67997;SDS011;54773;53.388;-1.504;2023-07-09T09:43:57;9.32;;;4.28;;
67997;SDS011;54773;53.388;-1.504;2023-07-09T09:46:41;8.48;;;3.58;;
67997;SDS011;54773;53.388;-1.504;2023-07-09T09:52:10;10.45;;;3.55;;
67997;SDS011;54773;53.388;-1.504;2023-07-09T09:55:01;8.38;;;2.88;;
67997;SDS011;54773;53.388;-1.504;2023-07-09T09:57:49;9.77;;;2.75;;
67997;SDS011;54773;53.388;-1.504;2023-07-09T10:00:34;7.57;;;2.67;;
67997;SDS011;54773;53.388;-1.504;2023-07-09T10:03:18;9.48;;;2.60;;
67997;SDS011;54773;53.388;-1.504;2023-07-09T10:06:21;7.43;;;2.50;;
67997;SDS011;54773;53.388;-1.504;2023-07-09T10:12:30;5.93;;;1.95;;
67997;SDS011;54773;53.388;-1.504;2023-07-09T10:24:33;6.90;;;2.05;;
67997;SDS011;54773;53.388;-1.504;2023-07-09T10:30:54;6.40;;;1.75;;
67997;SDS011;54773;53.388;-1.504;2023-07-09T10:39:57;7.47;;;1.88;;
67997;SDS011;54773;53.388;-1.504;2023-07-09T10:42:46;7.97;;;1.85;;
67997;SDS011;54773;53.388;-1.504;2023-07-09T10:45:39;12.27;;;2.13;;
67997;SDS011;54773;53.388;-1.504;2023-07-09T10:48:36;7.05;;;1.80;;
67997;SDS011;54773;53.388;-1.504;2023-07-09T10:51:23;7.90;;;2.08;;
67997;SDS011;54773;53.388;-1.504;2023-07-09T10:57:00;7.25;;;1.83;;
67997;SDS011;54773;53.388;-1.504;2023-07-09T10:59:54;7.38;;;2.00;;
67997;SDS011;54773;53.388;-1.504;2023-07-09T11:05:23;6.03;;;1.42;;
67997;SDS011;54773;53.388;-1.504;2023-07-09T11:08:12;7.25;;;1.70;;
67997;SDS011;54773;53.388;-1.504;2023-07-09T11:11:03;5.10;;;1.60;;
67997;SDS011;54773;53.388;-1.504;2023-07-09T11:13:50;9.55;;;1.88;;
67997;SDS011;54773;53.388;-1.504;2023-07-09T11:16:39;9.98;;;1.92;;
67997;SDS011;54773;53.388;-1.504;2023-07-09T11:19:24;7.88;;;2.05;;
67997;SDS011;54773;53.388;-1.504;2023-07-09T11:25:08;7.95;;;1.67;;
67997;SDS011;54773;53.388;-1.504;2023-07-09T11:28:01;13.80;;;2.10;;
67997;SDS011;54773;53.388;-1.504;2023-07-09T11:30:51;7.93;;;1.80;;
67997;SDS011;54773;53.388;-1.504;2023-07-09T11:33:46;8.55;;;1.80;;
67997;SDS011;54773;53.388;-1.504;2023-07-09T11:36:32;5.30;;;1.50;;
67997;SDS011;54773;53.388;-1.504;2023-07-09T11:42:22;6.15;;;1.60;;
67997;SDS011;54773;53.388;-1.504;2023-07-09T11:45:12;9.25;;;2.10;;
67997;SDS011;54773;53.388;-1.504;2023-07-09T11:48:01;7.45;;;1.67;;
67997;SDS011;54773;53.388;-1.504;2023-07-09T11:51:08;7.25;;;1.90;;
67997;SDS011;54773;53.388;-1.504;2023-07-09T11:53:58;8.23;;;1.70;;
67997;SDS011;54773;53.388;-1.504;2023-07-09T11:56:57;6.10;;;1.48;;
67997;SDS011;54773;53.388;-1.504;2023-07-09T11:59:42;6.75;;;1.70;;
67997;SDS011;54773;53.388;-1.504;2023-07-09T12:02:26;9.55;;;1.58;;
67997;SDS011;54773;53.388;-1.504;2023-07-09T12:05:18;6.95;;;1.52;;
67997;SDS011;54773;53.388;-1.504;2023-07-09T12:08:05;8.82;;;1.70;;
67997;SDS011;54773;53.388;-1.504;2023-07-09T12:10:50;9.52;;;1.75;;
67997;SDS011;54773;53.388;-1.504;2023-07-09T12:13:37;9.00;;;1.95;;
67997;SDS011;54773;53.388;-1.504;2023-07-09T12:16:28;8.00;;;1.90;;
67997;SDS011;54773;53.388;-1.504;2023-07-09T12:19:14;7.35;;;1.50;;
67997;SDS011;54773;53.388;-1.504;2023-07-09T12:22:00;7.07;;;1.42;;
67997;SDS011;54773;53.388;-1.504;2023-07-09T12:24:44;8.55;;;1.60;;
67997;SDS011;54773;53.388;-1.504;2023-07-09T12:27:30;8.50;;;1.85;;
67997;SDS011;54773;53.388;-1.504;2023-07-09T12:30:20;8.73;;;1.83;;
67997;SDS011;54773;53.388;-1.504;2023-07-09T12:33:06;6.45;;;1.52;;
67997;SDS011;54773;53.388;-1.504;2023-07-09T12:36:12;8.02;;;1.50;;
67997;SDS011;54773;53.388;-1.504;2023-07-09T12:39:02;6.60;;;1.63;;
67997;SDS011;54773;53.388;-1.504;2023-07-09T12:41:47;5.75;;;1.45;;
67997;SDS011;54773;53.388;-1.504;2023-07-09T12:44:33;36.90;;;28.90;;
67997;SDS011;54773;53.388;-1.504;2023-07-09T12:47:19;10.57;;;4.20;;
67997;SDS011;54773;53.388;-1.504;2023-07-09T12:50:22;16.27;;;8.93;;
67997;SDS011;54773;53.388;-1.504;2023-07-09T12:53:15;12.45;;;5.93;;
67997;SDS011;54773;53.388;-1.504;2023-07-09T12:56:00;8.77;;;3.30;;
67997;SDS011;54773;53.388;-1.504;2023-07-09T12:58:45;9.57;;;3.00;;
67997;SDS011;54773;53.388;-1.504;2023-07-09T13:04:15;8.10;;;2.55;;
67997;SDS011;54773;53.388;-1.504;2023-07-09T13:09:48;6.72;;;1.45;;
67997;SDS011;54773;53.388;-1.504;2023-07-09T13:12:32;8.15;;;1.90;;
67997;SDS011;54773;53.388;-1.504;2023-07-09T13:15:28;8.98;;;1.90;;
67997;SDS011;54773;53.388;-1.504;2023-07-09T13:18:18;8.55;;;1.50;;
67997;SDS011;54773;53.388;-1.504;2023-07-09T13:21:05;7.43;;;1.85;;
67997;SDS011;54773;53.388;-1.504;2023-07-09T13:24:00;4.68;;;1.40;;
67997;SDS011;54773;53.388;-1.504;2023-07-09T13:26:48;10.70;;;2.15;;
67997;SDS011;54773;53.388;-1.504;2023-07-09T13:32:17;6.53;;;1.35;;
67997;SDS011;54773;53.388;-1.504;2023-07-09T13:37:47;8.07;;;1.45;;
67997;SDS011;54773;53.388;-1.504;2023-07-09T13:40:31;7.82;;;1.45;;
67997;SDS011;54773;53.388;-1.504;2023-07-09T13:43:18;6.00;;;1.45;;
67997;SDS011;54773;53.388;-1.504;2023-07-09T13:46:05;7.65;;;1.60;;
67997;SDS011;54773;53.388;-1.504;2023-07-09T13:48:50;7.93;;;1.42;;
67997;SDS011;54773;53.388;-1.504;2023-07-09T13:51:34;8.32;;;1.85;;
67997;SDS011;54773;53.388;-1.504;2023-07-09T13:54:20;5.05;;;1.15;;
67997;SDS011;54773;53.388;-1.504;2023-07-09T13:57:05;5.78;;;1.48;;
67997;SDS011;54773;53.388;-1.504;2023-07-09T13:59:50;5.72;;;1.80;;
67997;SDS011;54773;53.388;-1.504;2023-07-09T14:02:35;5.68;;;1.50;;
67997;SDS011;54773;53.388;-1.504;2023-07-09T14:05:19;6.50;;;1.60;;
67997;SDS011;54773;53.388;-1.504;2023-07-09T14:08:03;6.63;;;1.50;;
67997;SDS011;54773;53.388;-1.504;2023-07-09T14:13:31;5.15;;;1.13;;
67997;SDS011;54773;53.388;-1.504;2023-07-09T14:16:16;6.93;;;1.30;;
67997;SDS011;54773;53.388;-1.504;2023-07-09T14:19:00;7.20;;;1.55;;
67997;SDS011;54773;53.388;-1.504;2023-07-09T14:21:44;4.78;;;1.10;;
67997;SDS011;54773;53.388;-1.504;2023-07-09T14:24:28;5.22;;;1.05;;
67997;SDS011;54773;53.388;-1.504;2023-07-09T14:27:13;7.32;;;1.20;;
67997;SDS011;54773;53.388;-1.504;2023-07-09T14:29:57;4.95;;;1.02;;
67997;SDS011;54773;53.388;-1.504;2023-07-09T14:32:43;5.60;;;1.25;;
67997;SDS011;54773;53.388;-1.504;2023-07-09T14:35:28;3.78;;;1.20;;
67997;SDS011;54773;53.388;-1.504;2023-07-09T14:38:20;5.10;;;1.20;;
67997;SDS011;54773;53.388;-1.504;2023-07-09T14:41:14;5.57;;;1.17;;
67997;SDS011;54773;53.388;-1.504;2023-07-09T14:44:02;5.07;;;1.20;;
67997;SDS011;54773;53.388;-1.504;2023-07-09T14:46:54;5.75;;;1.48;;
67997;SDS011;54773;53.388;-1.504;2023-07-09T14:49:41;5.45;;;1.27;;
67997;SDS011;54773;53.388;-1.504;2023-07-09T14:52:25;5.40;;;1.25;;
67997;SDS011;54773;53.388;-1.504;2023-07-09T14:58:01;5.53;;;1.13;;
67997;SDS011;54773;53.388;-1.504;2023-07-09T15:00:49;4.07;;;1.13;;
67997;SDS011;54773;53.388;-1.504;2023-07-09T15:03:33;5.28;;;1.38;;
67997;SDS011;54773;53.388;-1.504;2023-07-09T15:06:18;4.50;;;1.35;;
67997;SDS011;54773;53.388;-1.504;2023-07-09T15:09:02;7.38;;;1.50;;
67997;SDS011;54773;53.388;-1.504;2023-07-09T15:11:51;6.50;;;1.60;;
67997;SDS011;54773;53.388;-1.504;2023-07-09T15:14:38;6.45;;;1.10;;
67997;SDS011;54773;53.388;-1.504;2023-07-09T15:17:22;4.65;;;1.35;;
67997;SDS011;54773;53.388;-1.504;2023-07-09T15:20:11;4.80;;;1.25;;
67997;SDS011;54773;53.388;-1.504;2023-07-09T15:23:16;4.50;;;1.27;;
67997;SDS011;54773;53.388;-1.504;2023-07-09T15:26:00;6.63;;;1.60;;
67997;SDS011;54773;53.388;-1.504;2023-07-09T15:28:44;5.80;;;1.20;;
67997;SDS011;54773;53.388;-1.504;2023-07-09T15:31:32;3.85;;;1.23;;
67997;SDS011;54773;53.388;-1.504;2023-07-09T15:34:17;5.25;;;1.40;;
67997;SDS011;54773;53.388;-1.504;2023-07-09T15:39:50;4.95;;;1.20;;
67997;SDS011;54773;53.388;-1.504;2023-07-09T15:42:34;4.22;;;1.30;;
67997;SDS011;54773;53.388;-1.504;2023-07-09T15:45:18;6.18;;;1.38;;
67997;SDS011;54773;53.388;-1.504;2023-07-09T15:48:03;5.20;;;1.30;;
67997;SDS011;54773;53.388;-1.504;2023-07-09T15:50:51;5.03;;;1.45;;
67997;SDS011;54773;53.388;-1.504;2023-07-09T15:53:35;6.53;;;1.48;;
67997;SDS011;54773;53.388;-1.504;2023-07-09T15:56:25;5.78;;;1.20;;
67997;SDS011;54773;53.388;-1.504;2023-07-09T15:59:31;5.72;;;1.30;;
67997;SDS011;54773;53.388;-1.504;2023-07-09T16:02:17;7.53;;;1.50;;
67997;SDS011;54773;53.388;-1.504;2023-07-09T16:05:04;5.57;;;1.50;;
67997;SDS011;54773;53.388;-1.504;2023-07-09T16:08:03;5.50;;;1.17;;
67997;SDS011;54773;53.388;-1.504;2023-07-09T16:10:47;3.85;;;1.02;;
67997;SDS011;54773;53.388;-1.504;2023-07-09T16:13:31;6.03;;;1.30;;
67997;SDS011;54773;53.388;-1.504;2023-07-09T16:16:17;5.03;;;1.30;;
67997;SDS011;54773;53.388;-1.504;2023-07-09T16:19:03;5.35;;;1.40;;
67997;SDS011;54773;53.388;-1.504;2023-07-09T16:21:49;5.38;;;1.13;;
67997;SDS011;54773;53.388;-1.504;2023-07-09T16:24:35;5.00;;;1.52;;
67997;SDS011;54773;53.388;-1.504;2023-07-09T16:27:22;4.95;;;1.20;;
67997;SDS011;54773;53.388;-1.504;2023-07-09T16:32:58;6.28;;;1.33;;
67997;SDS011;54773;53.388;-1.504;2023-07-09T16:35:46;8.48;;;1.85;;
67997;SDS011;54773;53.388;-1.504;2023-07-09T16:38:32;4.70;;;1.23;;
67997;SDS011;54773;53.388;-1.504;2023-07-09T16:41:18;5.10;;;1.30;;
67997;SDS011;54773;53.388;-1.504;2023-07-09T16:44:08;6.57;;;1.42;;
67997;SDS011;54773;53.388;-1.504;2023-07-09T16:46:53;4.30;;;1.25;;
67997;SDS011;54773;53.388;-1.504;2023-07-09T16:49:39;5.28;;;1.20;;
67997;SDS011;54773;53.388;-1.504;2023-07-09T16:52:25;6.72;;;1.80;;
67997;SDS011;54773;53.388;-1.504;2023-07-09T16:57:58;4.82;;;1.60;;
67997;SDS011;54773;53.388;-1.504;2023-07-09T17:00:42;6.85;;;1.77;;
67997;SDS011;54773;53.388;-1.504;2023-07-09T17:03:27;5.78;;;1.35;;
67997;SDS011;54773;53.388;-1.504;2023-07-09T17:06:11;5.53;;;1.60;;
67997;SDS011;54773;53.388;-1.504;2023-07-09T17:08:56;4.22;;;1.48;;
67997;SDS011;54773;53.388;-1.504;2023-07-09T17:11:40;3.88;;;1.60;;
67997;SDS011;54773;53.388;-1.504;2023-07-09T17:14:24;5.07;;;1.80;;
67997;SDS011;54773;53.388;-1.504;2023-07-09T17:17:12;7.68;;;2.30;;
67997;SDS011;54773;53.388;-1.504;2023-07-09T17:20:03;7.50;;;2.55;;
67997;SDS011;54773;53.388;-1.504;2023-07-09T17:22:49;5.03;;;1.70;;
67997;SDS011;54773;53.388;-1.504;2023-07-09T17:25:34;5.85;;;1.65;;
67997;SDS011;54773;53.388;-1.504;2023-07-09T17:28:24;5.13;;;1.92;;
67997;SDS011;54773;53.388;-1.504;2023-07-09T17:31:14;4.13;;;1.50;;
67997;SDS011;54773;53.388;-1.504;2023-07-09T17:34:16;8.70;;;1.80;;
67997;SDS011;54773;53.388;-1.504;2023-07-09T17:37:01;5.25;;;1.75;;